Time;durP1;ratioP1;P1;durP2;ratioP2;P2;SDS_P1;SDS_P2;PMS_P1;PMS_P2;Temp;Humidity;BMP_temperature;BMP_pressure;BME280_temperature;BME280_humidity;BME280_pressure;Samples;Min_cycle;Max_cycle;Signal;HPM_P1;HPM_P2
2023/06/15 00:00:37;;;;;;;4.32;3.92;;;25.00;48.60;;;;;;4985994;28;20385;-89
2023/06/15 00:03:09;;;;;;;5.63;3.63;;;24.90;48.60;;;;;;4971669;28;20034;-88
2023/06/15 00:05:35;;;;;;;4.13;3.72;;;24.90;48.70;;;;;;4982605;28;20410;-87
2023/06/15 00:08:02;;;;;;;5.63;4.22;;;24.80;48.60;;;;;;4983807;28;20482;-88
2023/06/15 00:10:28;;;;;;;4.72;4.20;;;24.80;48.80;;;;;;4986331;28;20085;-90
2023/06/15 00:12:54;;;;;;;6.30;4.38;;;24.70;48.80;;;;;;4983615;28;20035;-88
2023/06/15 00:15:21;;;;;;;4.03;3.63;;;24.70;48.90;;;;;;4984293;28;20027;-87
2023/06/15 00:17:48;;;;;;;4.20;3.90;;;24.60;48.90;;;;;;4978470;28;20046;-88
2023/06/15 00:20:14;;;;;;;4.88;4.18;;;24.60;49.00;;;;;;4984744;28;20037;-88
2023/06/15 00:22:41;;;;;;;4.15;3.75;;;24.50;48.90;;;;;;4983065;28;20107;-88
2023/06/15 00:25:08;;;;;;;4.53;4.13;;;24.50;49.10;;;;;;5005217;28;20034;-88
2023/06/15 00:27:35;;;;;;;5.47;3.92;;;24.40;49.00;;;;;;4986230;28;20038;-87
2023/06/15 00:30:05;;;;;;;5.13;3.60;;;24.40;49.10;;;;;;4985131;28;20072;-87
2023/06/15 00:32:31;;;;;;;4.18;3.78;;;24.30;49.00;;;;;;4983831;28;20050;-86
2023/06/15 00:34:59;;;;;;;5.75;3.97;;;24.30;49.20;;;;;;4984780;28;20232;-88
2023/06/15 00:37:28;;;;;;;4.40;4.00;;;24.20;49.10;;;;;;4983285;28;20073;-86
2023/06/15 00:39:55;;;;;;;4.25;3.58;;;24.20;49.20;;;;;;4983332;28;20591;-88
2023/06/15 00:42:24;;;;;;;5.25;4.18;;;24.20;49.30;;;;;;4982699;28;20199;-86
2023/06/15 00:44:50;;;;;;;4.05;3.70;;;24.20;49.40;;;;;;4983812;28;20505;-88
2023/06/15 00:47:19;;;;;;;4.63;3.72;;;24.10;49.40;;;;;;4984226;28;20069;-88
2023/06/15 00:49:45;;;;;;;4.05;3.65;;;24.10;49.50;;;;;;4982922;28;20034;-87
2023/06/15 00:52:14;;;;;;;4.68;4.10;;;24.00;49.50;;;;;;4983946;28;20084;-87
2023/06/15 00:54:43;;;;;;;4.05;3.72;;;23.90;49.40;;;;;;4996217;28;20053;-88
2023/06/15 00:57:10;;;;;;;4.20;3.80;;;23.90;49.50;;;;;;4983141;28;20038;-90
2023/06/15 00:59:38;;;;;;;4.40;3.95;;;23.90;49.60;;;;;;4987265;28;20046;-90
2023/06/15 01:02:04;;;;;;;4.90;4.40;;;23.80;49.50;;;;;;4991276;28;20026;-89
2023/06/15 01:04:33;;;;;;;4.72;4.32;;;23.70;49.50;;;;;;4967405;28;20119;-89
2023/06/15 01:07:02;;;;;;;5.00;3.42;;;23.70;49.60;;;;;;4972637;28;20059;-87
2023/06/15 01:09:35;;;;;;;4.68;4.22;;;23.60;49.60;;;;;;4980056;28;20223;-86
2023/06/15 01:12:07;;;;;;;4.93;4.53;;;23.60;49.70;;;;;;4992538;28;20117;-82
2023/06/15 01:14:35;;;;;;;6.50;3.95;;;23.50;49.60;;;;;;4980403;28;20046;-85
2023/06/15 01:17:10;;;;;;;4.65;3.83;;;23.50;49.70;;;;;;4978544;28;20034;-87
2023/06/15 01:19:57;;;;;;;4.55;4.15;;;23.40;49.70;;;;;;4978720;28;20911;-86
2023/06/15 01:22:55;;;;;;;7.22;4.05;;;23.40;49.80;;;;;;4980314;28;20088;-86
2023/06/15 01:25:44;;;;;;;8.10;4.38;;;23.40;50.00;;;;;;4965043;28;20054;-86
2023/06/15 01:28:20;;;;;;;6.53;4.05;;;23.30;49.90;;;;;;4982306;28;20052;-84
2023/06/15 01:30:52;;;;;;;6.00;3.80;;;23.20;49.70;;;;;;4996043;28;20098;-85
2023/06/15 01:33:20;;;;;;;4.60;3.90;;;23.20;49.90;;;;;;4983219;28;20049;-86
2023/06/15 01:35:50;;;;;;;5.03;4.07;;;23.10;49.80;;;;;;4984586;28;20057;-86
2023/06/15 01:38:22;;;;;;;4.90;4.28;;;23.10;49.90;;;;;;4986667;28;20049;-86
2023/06/15 01:40:50;;;;;;;5.88;3.92;;;23.10;50.10;;;;;;4985294;28;20427;-86
2023/06/15 01:43:21;;;;;;;5.40;3.90;;;23.00;50.00;;;;;;4985243;28;20053;-87
2023/06/15 01:45:52;;;;;;;4.28;3.88;;;22.90;50.00;;;;;;4982593;28;20050;-86
2023/06/15 01:48:20;;;;;;;5.32;3.60;;;22.90;50.10;;;;;;4984658;28;20129;-86
2023/06/15 01:50:49;;;;;;;4.45;4.05;;;22.90;50.20;;;;;;4984956;28;20205;-86
2023/06/15 01:53:24;;;;;;;4.90;4.35;;;22.80;50.20;;;;;;4981291;28;20124;-87
2023/06/15 01:55:59;;;;;;;5.15;4.43;;;22.70;50.10;;;;;;4980116;28;20552;-85
2023/06/15 01:58:25;;;;;;;6.13;4.10;;;22.70;50.20;;;;;;4984997;28;20393;-85
2023/06/15 02:00:52;;;;;;;5.45;4.00;;;22.60;50.20;;;;;;4989791;28;20477;-86
2023/06/15 02:03:18;;;;;;;5.00;3.92;;;22.60;50.30;;;;;;4984862;28;20509;-86
2023/06/15 02:05:45;;;;;;;4.55;4.10;;;22.50;50.20;;;;;;4982803;28;20494;-85
2023/06/15 02:08:15;;;;;;;6.05;4.25;;;22.50;50.30;;;;;;4970611;28;20034;-86
2023/06/15 02:10:47;;;;;;;4.80;4.35;;;22.50;50.50;;;;;;4983989;28;20037;-86
2023/06/15 02:13:14;;;;;;;6.20;4.60;;;22.40;50.30;;;;;;4969705;28;20034;-84
2023/06/15 02:15:43;;;;;;;5.75;4.43;;;22.40;50.40;;;;;;4990342;28;20034;-85
2023/06/15 02:18:14;;;;;;;6.15;4.32;;;22.30;50.30;;;;;;4980841;28;20081;-86
2023/06/15 02:20:41;;;;;;;5.72;4.45;;;22.30;50.50;;;;;;4984274;28;20481;-86
2023/06/15 02:23:10;;;;;;;5.07;3.67;;;22.30;50.60;;;;;;4985723;28;20034;-85
2023/06/15 02:25:38;;;;;;;4.70;4.30;;;22.20;50.50;;;;;;4985486;28;20034;-91
2023/06/15 02:28:07;;;;;;;4.28;3.97;;;22.20;50.60;;;;;;4982558;28;20367;-86
2023/06/15 02:30:33;;;;;;;4.35;3.97;;;22.20;50.70;;;;;;4987950;28;20522;-88
2023/06/15 02:33:02;;;;;;;4.93;3.65;;;22.20;50.70;;;;;;4983148;28;20088;-87
2023/06/15 02:35:29;;;;;;;5.20;4.72;;;22.20;50.80;;;;;;4985303;28;20042;-87
2023/06/15 02:37:55;;;;;;;5.10;4.60;;;22.10;50.70;;;;;;4987132;28;20376;-88
2023/06/15 02:40:22;;;;;;;5.05;4.65;;;22.10;50.80;;;;;;4988668;28;20042;-89
2023/06/15 02:42:48;;;;;;;6.20;4.50;;;22.10;50.90;;;;;;4987379;28;20068;-88
2023/06/15 02:45:15;;;;;;;4.50;4.15;;;22.10;50.90;;;;;;4987822;28;20429;-89
2023/06/15 02:47:43;;;;;;;5.32;4.45;;;22.00;50.80;;;;;;4988034;28;20055;-87
2023/06/15 02:50:10;;;;;;;5.72;5.15;;;22.00;50.90;;;;;;4989560;28;20037;-88
2023/06/15 02:52:45;;;;;;;4.80;4.30;;;22.00;51.00;;;;;;4972075;28;20130;-89
2023/06/15 02:55:13;;;;;;;6.57;5.22;;;22.00;51.00;;;;;;4989760;28;20173;-88
2023/06/15 02:57:41;;;;;;;5.03;4.53;;;21.90;50.90;;;;;;4985465;28;20122;-88
2023/06/15 03:00:36;;;;;;;6.72;6.00;;;21.90;51.10;;;;;;4983895;28;20106;-89
2023/06/15 03:03:16;;;;;;;4.88;4.38;;;21.80;50.90;;;;;;4987562;28;20555;-89
2023/06/15 03:05:46;;;;;;;6.05;5.32;;;21.80;51.10;;;;;;4998673;28;20402;-89
2023/06/15 03:08:31;;;;;;;5.15;4.63;;;21.70;51.00;;;;;;4985956;28;20324;-87
2023/06/15 03:11:24;;;;;;;4.53;4.10;;;21.70;51.10;;;;;;4982203;28;20097;-85
2023/06/15 03:13:53;;;;;;;5.47;4.93;;;21.60;51.00;;;;;;4973605;28;20030;-87
2023/06/15 03:16:25;;;;;;;8.57;5.20;;;21.60;51.10;;;;;;4983079;28;20379;-86
2023/06/15 03:18:53;;;;;;;6.75;6.05;;;21.60;51.20;;;;;;4979719;28;20038;-86
2023/06/15 03:21:22;;;;;;;5.70;4.95;;;21.50;51.20;;;;;;4984807;28;20039;-85
2023/06/15 03:23:50;;;;;;;7.28;5.13;;;21.50;51.30;;;;;;4984781;28;20038;-85
2023/06/15 03:26:23;;;;;;;6.85;5.05;;;21.40;51.20;;;;;;4986144;28;20035;-85
2023/06/15 03:28:53;;;;;;;6.63;5.20;;;21.40;51.30;;;;;;4987048;28;20050;-84
2023/06/15 03:31:22;;;;;;;6.18;4.90;;;21.40;51.40;;;;;;4994064;28;20031;-85
2023/06/15 03:33:51;;;;;;;5.57;4.95;;;21.40;51.50;;;;;;4987074;28;20066;-85
2023/06/15 03:36:19;;;;;;;5.93;5.35;;;21.30;51.40;;;;;;4986669;28;20394;-85
2023/06/15 03:38:48;;;;;;;8.95;5.60;;;21.30;51.40;;;;;;4983333;28;20129;-87
2023/06/15 03:41:14;;;;;;;6.55;5.03;;;21.30;51.50;;;;;;4982433;28;20462;-85
2023/06/15 03:43:41;;;;;;;6.50;5.55;;;21.30;51.60;;;;;;4988262;28;20273;-86
2023/06/15 03:46:08;;;;;;;7.55;5.85;;;21.30;51.70;;;;;;4982580;28;20034;-86
2023/06/15 03:48:34;;;;;;;5.88;5.03;;;21.20;51.60;;;;;;4983930;28;20034;-87
2023/06/15 03:51:01;;;;;;;6.18;5.57;;;21.20;51.60;;;;;;4970207;28;20027;-86
2023/06/15 03:53:27;;;;;;;6.28;5.68;;;21.20;51.80;;;;;;4984425;28;20027;-86
2023/06/15 03:55:54;;;;;;;5.25;4.75;;;21.20;51.80;;;;;;4985580;28;20034;-85
2023/06/15 03:58:20;;;;;;;5.50;5.00;;;21.10;51.70;;;;;;4987442;28;20037;-87
2023/06/15 04:00:50;;;;;;;7.07;6.38;;;21.10;51.80;;;;;;4976129;28;20139;-90
2023/06/15 04:03:17;;;;;;;7.82;5.70;;;21.10;51.80;;;;;;4971019;28;20133;-87
2023/06/15 04:05:48;;;;;;;7.22;5.60;;;21.00;51.70;;;;;;4987988;28;20128;-87
2023/06/15 04:08:18;;;;;;;6.95;5.40;;;21.00;52.30;;;;;;5003365;28;20129;-87
2023/06/15 04:10:48;;;;;;;6.50;5.63;;;21.00;51.80;;;;;;4988878;28;20041;-87
2023/06/15 04:13:16;;;;;;;6.40;5.82;;;21.00;51.90;;;;;;4988304;28;20031;-86
2023/06/15 04:15:42;;;;;;;6.25;5.30;;;20.90;51.70;;;;;;4986703;28;20026;-88
2023/06/15 04:18:09;;;;;;;5.88;5.32;;;20.90;51.80;;;;;;4981317;28;20039;-88
2023/06/15 04:20:37;;;;;;;6.60;6.00;;;20.90;51.90;;;;;;4991294;28;20113;-90
2023/06/15 04:23:03;;;;;;;7.55;5.85;;;20.90;51.90;;;;;;4990579;28;20085;-87
2023/06/15 04:25:30;;;;;;;6.25;5.60;;;20.90;51.90;;;;;;4966030;28;20026;-87
2023/06/15 04:27:56;;;;;;;6.35;5.72;;;20.80;51.80;;;;;;4988603;28;20050;-87
2023/06/15 04:30:24;;;;;;;7.05;5.85;;;20.90;52.00;;;;;;4988982;28;20453;-86
2023/06/15 04:32:57;;;;;;;7.07;5.40;;;20.80;51.90;;;;;;4981793;28;20019;-86
2023/06/15 04:35:28;;;;;;;7.30;5.80;;;20.80;51.90;;;;;;4979427;28;20030;-87
2023/06/15 04:37:58;;;;;;;7.30;6.00;;;20.80;51.90;;;;;;4998759;28;20038;-87
2023/06/15 04:40:24;;;;;;;7.65;6.15;;;20.80;52.00;;;;;;4987311;28;20034;-87
2023/06/15 04:42:57;;;;;;;7.15;6.43;;;20.80;52.00;;;;;;4989215;28;20037;-85
2023/06/15 04:45:24;;;;;;;6.85;5.68;;;20.80;52.00;;;;;;4985673;28;20150;-85
2023/06/15 04:47:56;;;;;;;7.20;6.30;;;20.80;52.00;;;;;;4980614;28;20057;-86
2023/06/15 04:50:23;;;;;;;6.93;6.22;;;20.80;52.00;;;;;;4978735;28;20050;-85
2023/06/15 04:52:49;;;;;;;7.05;6.45;;;20.80;52.10;;;;;;4980527;28;20052;-85
2023/06/15 04:55:15;;;;;;;6.85;5.97;;;20.80;52.10;;;;;;4983928;28;20105;-85
2023/06/15 04:57:42;;;;;;;6.25;5.65;;;20.80;52.10;;;;;;4967451;28;20045;-87
2023/06/15 05:00:10;;;;;;;6.13;5.63;;;20.80;52.10;;;;;;4984220;28;20125;-84
2023/06/15 05:02:43;;;;;;;7.25;6.60;;;20.80;52.10;;;;;;4982427;28;20046;-85
2023/06/15 05:05:11;;;;;;;7.38;6.72;;;20.80;52.00;;;;;;4995909;28;20057;-87
2023/06/15 05:07:37;;;;;;;6.38;5.75;;;20.80;52.10;;;;;;4995836;28;20479;-83
2023/06/15 05:10:04;;;;;;;8.02;6.97;;;20.80;52.00;;;;;;4983167;28;20038;-82
2023/06/15 05:12:34;;;;;;;7.18;6.57;;;20.80;52.60;;;;;;4979131;28;20093;-87
2023/06/15 05:15:00;;;;;;;9.27;6.80;;;20.90;52.10;;;;;;4978257;28;20457;-80
2023/06/15 05:17:27;;;;;;;6.72;6.22;;;20.90;52.10;;;;;;4993067;28;20028;-81
2023/06/15 05:19:54;;;;;;;6.95;6.35;;;20.90;52.10;;;;;;4978548;28;20069;-84
2023/06/15 05:22:40;;;;;;;8.10;7.40;;;20.90;52.00;;;;;;4958770;28;20528;-84
2023/06/15 05:25:06;;;;;;;7.38;6.70;;;20.90;52.00;;;;;;4980237;28;20030;-85
2023/06/15 05:27:35;;;;;;;10.23;7.90;;;20.90;52.00;;;;;;4978607;28;20480;-87
2023/06/15 05:30:02;;;;;;;8.50;7.15;;;20.90;51.90;;;;;;4977192;28;20057;-86
2023/06/15 05:32:28;;;;;;;7.88;7.10;;;21.00;52.10;;;;;;4979198;28;20049;-86
2023/06/15 05:34:55;;;;;;;7.82;7.20;;;21.00;52.00;;;;;;4993704;28;20042;-85
2023/06/15 05:37:21;;;;;;;7.63;6.93;;;21.00;52.00;;;;;;4984084;28;20125;-85
2023/06/15 05:39:53;;;;;;;7.07;6.47;;;21.10;52.10;;;;;;4983691;28;20057;-87
2023/06/15 05:42:20;;;;;;;8.80;6.88;;;21.10;52.10;;;;;;4980903;28;20386;-86
2023/06/15 05:44:51;;;;;;;6.90;6.40;;;21.20;52.10;;;;;;4999285;28;20094;-87
2023/06/15 05:47:18;;;;;;;10.43;6.55;;;21.30;52.20;;;;;;4960455;28;20125;-88
2023/06/15 05:49:45;;;;;;;7.30;6.68;;;21.40;52.20;;;;;;4980556;28;20521;-87
2023/06/15 05:52:14;;;;;;;6.90;6.20;;;21.40;52.20;;;;;;4998110;28;20506;-83
2023/06/15 05:54:45;;;;;;;7.28;6.68;;;21.50;52.20;;;;;;4979171;28;20121;-81
2023/06/15 05:57:12;;;;;;;6.85;6.10;;;21.50;52.30;;;;;;4963217;28;20042;-81
2023/06/15 05:59:39;;;;;;;9.40;6.75;;;21.60;52.70;;;;;;4976790;28;20038;-80
2023/06/15 06:02:07;;;;;;;7.57;6.47;;;21.70;53.60;;;;;;4991165;28;20038;-81
2023/06/15 06:05:01;;;;;;;6.28;5.65;;;21.70;54.40;;;;;;4941304;28;20147;-81
2023/06/15 06:07:31;;;;;;;7.65;6.57;;;21.80;55.20;;;;;;4970898;28;20062;-80
2023/06/15 06:10:02;;;;;;;7.80;7.03;;;21.90;55.80;;;;;;4980176;28;20145;-80
2023/06/15 06:12:32;;;;;;;8.85;7.82;;;22.10;56.80;;;;;;4978805;28;20038;-82
2023/06/15 06:14:59;;;;;;;11.48;7.47;;;22.10;57.20;;;;;;4977208;28;20034;-79
2023/06/15 06:17:25;;;;;;;7.97;7.28;;;22.40;58.10;;;;;;4974618;28;20501;-79
2023/06/15 06:19:54;;;;;;;8.82;6.85;;;22.60;58.50;;;;;;4980638;28;20371;-79
2023/06/15 06:22:25;;;;;;;10.52;7.20;;;22.80;58.60;;;;;;4976862;28;20299;-80
2023/06/15 06:24:58;;;;;;;6.53;5.93;;;23.10;58.90;;;;;;4973772;28;20068;-81
2023/06/15 06:27:25;;;;;;;6.43;5.82;;;23.40;58.90;;;;;;4972967;28;20499;-79
2023/06/15 06:29:51;;;;;;;7.53;6.82;;;23.70;58.90;;;;;;4980327;28;20030;-82
2023/06/15 06:32:18;;;;;;;6.32;5.82;;;24.00;59.40;;;;;;4979775;28;20143;-79
2023/06/15 06:34:43;;;;;;;6.53;5.97;;;24.20;58.60;;;;;;4982884;28;20034;-79
2023/06/15 06:37:09;;;;;;;6.97;6.28;;;24.40;58.60;;;;;;4975684;28;20399;-82
2023/06/15 06:39:36;;;;;;;8.43;6.55;;;24.50;58.40;;;;;;4978926;28;20038;-79
2023/06/15 06:42:02;;;;;;;9.43;6.00;;;24.70;58.30;;;;;;4975524;28;20351;-79
2023/06/15 06:44:36;;;;;;;6.40;5.78;;;24.80;58.10;;;;;;4975474;28;20077;-80
2023/06/15 06:47:05;;;;;;;6.82;6.15;;;25.00;58.00;;;;;;4976347;28;20042;-80
2023/06/15 06:49:31;;;;;;;6.35;5.75;;;25.10;57.70;;;;;;4980243;28;20121;-80
2023/06/15 06:52:07;;;;;;;8.85;5.75;;;25.30;57.40;;;;;;4979197;28;20257;-80
2023/06/15 06:54:34;;;;;;;6.00;5.40;;;25.50;56.90;;;;;;4992194;28;21544;-80
2023/06/15 06:57:01;;;;;;;7.90;5.82;;;25.80;56.50;;;;;;4975486;28;20088;-86
2023/06/15 06:59:30;;;;;;;6.50;5.90;;;26.10;55.90;;;;;;4977378;28;20128;-86
2023/06/15 07:01:56;;;;;;;6.97;5.85;;;26.50;55.20;;;;;;4984079;28;20113;-85
2023/06/15 07:04:26;;;;;;;6.75;6.07;;;26.90;54.40;;;;;;4987512;28;20034;-84
2023/06/15 07:06:52;;;;;;;10.50;6.82;;;27.30;53.50;;;;;;4977918;28;20117;-86
2023/06/15 07:09:18;;;;;;;5.95;5.45;;;27.60;52.80;;;;;;4984159;28;20057;-86
2023/06/15 07:11:44;;;;;;;6.95;6.30;;;28.00;52.00;;;;;;4980999;28;20041;-86
2023/06/15 07:14:13;;;;;;;6.43;5.68;;;28.30;51.20;;;;;;4977352;28;20038;-89
2023/06/15 07:16:42;;;;;;;6.68;5.15;;;28.60;50.60;;;;;;4981080;28;20034;-87
2023/06/15 07:19:08;;;;;;;6.43;5.30;;;28.90;50.10;;;;;;4978520;28;20033;-87
2023/06/15 07:21:43;;;;;;;5.88;5.28;;;29.00;49.70;;;;;;4980220;28;20627;-86
2023/06/15 07:24:10;;;;;;;5.60;5.10;;;29.10;49.60;;;;;;4981511;28;20061;-89
2023/06/15 07:26:36;;;;;;;7.93;5.90;;;29.10;49.40;;;;;;4979612;28;20053;-88
2023/06/15 07:29:02;;;;;;;5.55;5.05;;;29.20;49.30;;;;;;4979532;28;20026;-84
2023/06/15 07:31:28;;;;;;;5.10;4.60;;;29.30;49.10;;;;;;4980792;28;20552;-84
2023/06/15 07:33:54;;;;;;;5.72;5.22;;;29.50;48.70;;;;;;4982057;28;20030;-87
2023/06/15 07:36:20;;;;;;;6.00;5.05;;;29.70;48.10;;;;;;4980048;28;20050;-88
2023/06/15 07:38:46;;;;;;;6.25;5.63;;;30.00;47.60;;;;;;4982688;28;20038;-88
2023/06/15 07:41:13;;;;;;;6.68;5.00;;;30.30;47.20;;;;;;4980936;28;20030;-81
2023/06/15 07:43:41;;;;;;;5.53;4.85;;;30.40;46.60;;;;;;4983767;28;20054;-86
2023/06/15 07:46:13;;;;;;;6.67;4.93;;;30.70;46.20;;;;;;4978960;28;20091;-84
2023/06/15 07:48:39;;;;;;;4.50;4.10;;;31.00;45.80;;;;;;4985475;28;20557;-86
2023/06/15 07:51:06;;;;;;;4.93;4.40;;;31.20;45.30;;;;;;4979016;28;20038;-88
2023/06/15 07:53:35;;;;;;;4.38;3.97;;;31.60;44.90;;;;;;5000131;28;20213;-84
2023/06/15 07:56:05;;;;;;;4.78;4.30;;;32.10;44.20;;;;;;4976497;28;20049;-85
2023/06/15 07:58:31;;;;;;;4.55;4.10;;;32.60;43.50;;;;;;4982144;28;20496;-88
2023/06/15 08:00:57;;;;;;;4.63;4.20;;;33.10;42.90;;;;;;4981937;28;20023;-87
2023/06/15 08:03:25;;;;;;;4.38;3.97;;;33.50;42.40;;;;;;4977800;28;20121;-89
2023/06/15 08:05:51;;;;;;;4.57;3.92;;;33.50;42.30;;;;;;4979929;28;20641;-82
2023/06/15 08:08:17;;;;;;;4.85;4.35;;;33.50;42.40;;;;;;4985264;28;20049;-86
2023/06/15 08:10:44;;;;;;;4.15;3.80;;;33.40;42.50;;;;;;4979654;28;20109;-82
2023/06/15 08:13:10;;;;;;;5.13;3.70;;;33.40;42.70;;;;;;4981989;28;20441;-85
2023/06/15 08:15:36;;;;;;;4.68;4.28;;;33.30;42.60;;;;;;4980168;28;20370;-82
2023/06/15 08:18:02;;;;;;;7.07;3.70;;;33.20;42.60;;;;;;4974795;28;20031;-84
2023/06/15 08:20:28;;;;;;;7.35;4.70;;;33.20;42.60;;;;;;4986309;28;20057;-85
2023/06/15 08:22:54;;;;;;;3.83;3.47;;;33.10;42.60;;;;;;4980223;28;20713;-84
2023/06/15 08:25:21;;;;;;;4.63;3.88;;;33.10;42.60;;;;;;4980240;28;20038;-82
2023/06/15 08:27:47;;;;;;;6.40;3.70;;;33.10;42.60;;;;;;4979865;28;20069;-85
2023/06/15 08:30:13;;;;;;;4.25;3.40;;;33.10;42.50;;;;;;4980812;28;20117;-86
2023/06/15 08:32:39;;;;;;;3.42;3.13;;;33.20;42.50;;;;;;4979318;28;20508;-83
2023/06/15 08:35:08;;;;;;;3.40;3.10;;;33.30;42.50;;;;;;4983695;28;20034;-84
2023/06/15 08:37:37;;;;;;;4.68;3.88;;;33.30;42.20;;;;;;4979118;28;20096;-87
2023/06/15 08:40:08;;;;;;;3.78;3.47;;;33.40;42.20;;;;;;4988037;28;20047;-85
2023/06/15 08:42:34;;;;;;;3.55;3.25;;;33.50;42.00;;;;;;4976713;28;20113;-86
2023/06/15 08:45:04;;;;;;;3.60;3.22;;;33.60;41.80;;;;;;4974165;28;20453;-86
2023/06/15 08:47:34;;;;;;;3.70;3.38;;;33.70;41.60;;;;;;4973374;28;20049;-83
2023/06/15 08:50:02;;;;;;;3.20;2.90;;;33.80;41.40;;;;;;4978617;28;20078;-82
2023/06/15 08:52:32;;;;;;;3.50;3.20;;;33.90;41.80;;;;;;4958788;28;20058;-83
2023/06/15 08:55:00;;;;;;;4.88;3.28;;;34.00;41.10;;;;;;4981300;28;20475;-82
2023/06/15 08:57:27;;;;;;;3.65;3.08;;;34.10;41.00;;;;;;4978053;28;20519;-84
2023/06/15 08:59:55;;;;;;;4.28;3.45;;;34.20;40.70;;;;;;4994318;28;20034;-82
2023/06/15 09:02:24;;;;;;;3.95;2.90;;;34.40;40.60;;;;;;4980774;28;20040;-84
2023/06/15 09:04:51;;;;;;;3.05;2.85;;;34.40;40.30;;;;;;4978708;28;20571;-85
2023/06/15 09:07:21;;;;;;;3.40;2.40;;;34.60;40.40;;;;;;4978076;28;20038;-84
2023/06/15 09:10:09;;;;;;;2.88;2.67;;;34.60;40.20;;;;;;4984724;28;20038;-82
2023/06/15 09:12:50;;;;;;;3.45;3.00;;;34.70;40.10;;;;;;4994035;28;20061;-83
2023/06/15 09:15:19;;;;;;;3.38;2.40;;;34.90;40.00;;;;;;4979069;28;20038;-85
2023/06/15 09:17:48;;;;;;;3.55;2.90;;;34.90;39.70;;;;;;4997017;28;20030;-85
2023/06/15 09:20:15;;;;;;;3.00;2.22;;;35.00;39.70;;;;;;4981138;28;20096;-85
2023/06/15 09:22:45;;;;;;;4.57;2.60;;;35.00;39.50;;;;;;4977994;28;20359;-83
2023/06/15 09:25:12;;;;;;;3.00;2.80;;;35.00;39.50;;;;;;4979584;28;20046;-83
2023/06/15 09:27:41;;;;;;;4.20;2.85;;;35.10;39.60;;;;;;4979994;28;20045;-82
2023/06/15 09:30:08;;;;;;;5.38;3.08;;;35.20;39.40;;;;;;4980383;28;20041;-84
2023/06/15 09:32:34;;;;;;;5.03;2.55;;;35.20;39.20;;;;;;4986491;28;20108;-85
2023/06/15 09:35:09;;;;;;;3.30;2.67;;;35.30;39.00;;;;;;4977207;28;20045;-84
2023/06/15 09:37:37;;;;;;;3.10;2.40;;;35.50;39.50;;;;;;4981838;28;20537;-83
2023/06/15 09:40:06;;;;;;;2.65;2.20;;;35.60;38.80;;;;;;4980142;28;20530;-83
2023/06/15 09:42:34;;;;;;;2.78;2.58;;;35.70;38.80;;;;;;4982604;28;20386;-82
2023/06/15 09:45:06;;;;;;;2.70;2.50;;;35.80;38.70;;;;;;4977939;28;20668;-83
2023/06/15 09:47:32;;;;;;;3.58;2.60;;;35.90;38.60;;;;;;4976452;28;20120;-84
2023/06/15 09:49:59;;;;;;;3.33;2.38;;;36.10;38.60;;;;;;4980299;28;20113;-85
2023/06/15 09:52:25;;;;;;;3.53;2.40;;;36.20;38.30;;;;;;4979812;28;20041;-84
2023/06/15 09:54:55;;;;;;;5.60;2.67;;;36.30;38.10;;;;;;4979047;28;20567;-86
2023/06/15 09:57:21;;;;;;;2.60;2.40;;;36.40;38.00;;;;;;4956541;28;20347;-85
2023/06/15 09:59:49;;;;;;;2.92;2.15;;;36.40;37.90;;;;;;4988484;28;20042;-81
2023/06/15 10:02:22;;;;;;;4.95;3.28;;;36.50;37.80;;;;;;4977259;28;20072;-83
2023/06/15 10:04:52;;;;;;;3.72;2.95;;;36.60;37.70;;;;;;4997770;28;20042;-83
2023/06/15 10:07:24;;;;;;;2.33;2.13;;;36.70;37.50;;;;;;4981886;28;20070;-81
2023/06/15 10:09:53;;;;;;;4.03;2.28;;;36.80;37.30;;;;;;4984725;28;20034;-81
2023/06/15 10:12:25;;;;;;;3.15;2.95;;;37.00;37.20;;;;;;4976853;28;20034;-81
2023/06/15 10:15:10;;;;;;;5.68;2.92;;;37.00;36.80;;;;;;4984341;28;20035;-82
2023/06/15 10:17:40;;;;;;;2.85;2.60;;;37.10;36.80;;;;;;4975482;28;20034;-86
2023/06/15 10:20:17;;;;;;;2.67;2.40;;;37.20;37.30;;;;;;4980652;28;20049;-84
2023/06/15 10:23:07;;;;;;;3.40;2.45;;;37.20;36.50;;;;;;4977385;28;20045;-82
2023/06/15 10:25:35;;;;;;;3.33;2.40;;;37.40;36.40;;;;;;4977833;28;20038;-85
2023/06/15 10:28:11;;;;;;;2.53;2.38;;;37.50;36.50;;;;;;4979402;28;20117;-85
2023/06/15 10:31:02;;;;;;;2.92;2.42;;;37.60;36.60;;;;;;4977781;28;20044;-82
2023/06/15 10:33:32;;;;;;;2.38;2.22;;;37.70;36.50;;;;;;4969543;28;20393;-84
2023/06/15 10:36:27;;;;;;;2.85;2.33;;;37.80;36.50;;;;;;4979371;28;20497;-80
2023/06/15 10:39:19;;;;;;;2.00;1.90;;;37.90;36.20;;;;;;4974694;28;20152;-83
2023/06/15 10:41:46;;;;;;;2.03;1.92;;;38.00;36.20;;;;;;4991667;28;20065;-81
2023/06/15 10:44:17;;;;;;;1.70;1.60;;;38.10;36.30;;;;;;4984321;28;20556;-83
2023/06/15 10:46:46;;;;;;;3.33;2.30;;;38.20;36.30;;;;;;4976590;28;20489;-85
2023/06/15 10:49:12;;;;;;;1.90;1.73;;;38.30;36.40;;;;;;4978651;28;20456;-83
2023/06/15 10:51:50;;;;;;;2.50;1.90;;;38.40;36.20;;;;;;4981089;28;20077;-84
2023/06/15 10:54:25;;;;;;;2.03;1.90;;;38.50;36.10;;;;;;4987444;28;20127;-81
2023/06/15 10:56:57;;;;;;;2.10;1.90;;;38.60;36.10;;;;;;4995650;28;20125;-85
2023/06/15 10:59:49;;;;;;;2.58;2.30;;;38.70;36.10;;;;;;4987406;28;20647;-84
2023/06/15 11:02:27;;;;;;;1.90;1.80;;;38.80;35.90;;;;;;4969001;28;20153;-84
2023/06/15 11:05:03;;;;;;;4.30;2.08;;;38.90;35.80;;;;;;4986483;28;20054;-82
2023/06/15 11:07:33;;;;;;;2.15;1.95;;;39.10;35.80;;;;;;4985332;28;20041;-83
2023/06/15 11:10:11;;;;;;;2.05;1.85;;;39.20;35.80;;;;;;4963306;28;20042;-83
2023/06/15 11:12:40;;;;;;;2.08;1.98;;;39.20;35.80;;;;;;4982348;28;20034;-86
2023/06/15 11:15:08;;;;;;;2.20;2.00;;;39.30;35.90;;;;;;4978458;28;20046;-85
2023/06/15 11:18:14;;;;;;;1.70;1.60;;;39.50;35.90;;;;;;4978960;28;20030;-81
2023/06/15 11:20:42;;;;;;;2.85;1.55;;;39.70;35.70;;;;;;4957443;28;20093;-81
2023/06/15 11:23:19;;;;;;;1.98;1.88;;;39.80;35.70;;;;;;4990713;28;20124;-83
2023/06/15 11:25:54;;;;;;;1.70;1.60;;;39.80;35.70;;;;;;4985815;28;20045;-81
2023/06/15 11:28:24;;;;;;;1.60;1.50;;;39.60;35.80;;;;;;4982642;28;20526;-83
2023/06/15 11:31:04;;;;;;;1.83;1.50;;;39.50;36.00;;;;;;4980114;28;20035;-82
2023/06/15 11:33:35;;;;;;;1.52;1.42;;;39.40;36.10;;;;;;4986942;28;20049;-83
2023/06/15 11:36:06;;;;;;;3.10;1.70;;;39.30;36.10;;;;;;4976748;28;20069;-81
2023/06/15 11:38:37;;;;;;;2.05;1.95;;;39.40;36.20;;;;;;4983044;28;20523;-82
2023/06/15 11:41:07;;;;;;;3.38;2.28;;;39.50;36.10;;;;;;4985634;28;20031;-84
2023/06/15 11:43:41;;;;;;;2.03;1.83;;;39.60;35.80;;;;;;4981031;28;20049;-84
2023/06/15 11:46:12;;;;;;;2.10;1.90;;;39.80;35.50;;;;;;4979737;28;20036;-81
2023/06/15 11:48:40;;;;;;;1.98;1.77;;;39.80;35.50;;;;;;4999186;28;20042;-81
2023/06/15 11:51:08;;;;;;;2.25;2.08;;;39.80;35.60;;;;;;4980808;28;20405;-85
2023/06/15 11:53:35;;;;;;;1.77;1.67;;;39.80;35.50;;;;;;4981215;28;20059;-82
2023/06/15 11:56:01;;;;;;;2.30;2.13;;;39.90;35.40;;;;;;4976637;28;20034;-90
2023/06/15 11:58:34;;;;;;;1.95;1.85;;;40.10;35.30;;;;;;4983841;28;20038;-82
2023/06/15 12:01:01;;;;;;;2.65;1.75;;;40.20;35.10;;;;;;4978203;28;20053;-81
2023/06/15 12:03:27;;;;;;;3.10;2.42;;;40.30;35.00;;;;;;4984094;28;20110;-81
2023/06/15 12:05:58;;;;;;;2.63;1.80;;;40.40;34.90;;;;;;4982191;28;20049;-83
2023/06/15 12:08:26;;;;;;;1.95;1.85;;;40.50;34.80;;;;;;4978361;28;20053;-83
2023/06/15 12:10:53;;;;;;;2.20;2.00;;;40.50;34.70;;;;;;4983950;28;20493;-85
2023/06/15 12:13:19;;;;;;;4.15;2.28;;;40.60;34.60;;;;;;4981931;28;20358;-85
2023/06/15 12:15:50;;;;;;;2.30;2.10;;;40.70;34.60;;;;;;4979061;28;20060;-84
2023/06/15 12:18:19;;;;;;;2.63;2.10;;;40.60;34.60;;;;;;4971426;28;20473;-82
2023/06/15 12:20:50;;;;;;;3.75;2.20;;;40.60;34.60;;;;;;4978133;28;20557;-82
2023/06/15 12:23:48;;;;;;;2.28;2.08;;;40.70;34.60;;;;;;4982593;28;20201;-82
2023/06/15 12:26:17;;;;;;;3.38;2.30;;;40.80;34.30;;;;;;4979401;28;20069;-79
2023/06/15 12:28:49;;;;;;;2.60;2.40;;;40.90;34.30;;;;;;4980186;28;20060;-84
2023/06/15 12:31:15;;;;;;;2.17;1.98;;;41.00;34.20;;;;;;4978369;28;20125;-83
2023/06/15 12:33:42;;;;;;;2.35;2.15;;;41.00;34.10;;;;;;4987976;28;20220;-82
2023/06/15 12:36:19;;;;;;;2.45;2.25;;;41.00;34.00;;;;;;4979879;28;20156;-83
2023/06/15 12:38:48;;;;;;;3.67;2.20;;;40.80;34.10;;;;;;4982677;28;20050;-83
2023/06/15 12:41:16;;;;;;;5.03;2.83;;;40.50;34.20;;;;;;5001816;28;20344;-81
2023/06/15 12:43:45;;;;;;;3.85;2.35;;;40.10;34.40;;;;;;4966405;28;20042;-82
2023/06/15 12:46:14;;;;;;;;;;;39.90;34.50;;;;;;4979908;28;20059;-81
2023/06/15 12:48:42;;;;;;;3.00;2.30;;;39.60;34.80;;;;;;4980477;28;19941;-81
2023/06/15 12:51:08;;;;;;;2.50;2.30;;;39.30;35.00;;;;;;4976480;28;20241;-81
2023/06/15 12:53:37;;;;;;;2.95;2.65;;;39.00;35.20;;;;;;4981796;28;20097;-81
2023/06/15 12:56:06;;;;;;;2.75;2.50;;;38.70;35.20;;;;;;4978960;28;20305;-80
2023/06/15 12:58:32;;;;;;;3.25;2.42;;;38.40;35.30;;;;;;4980250;28;20584;-82
2023/06/15 13:00:58;;;;;;;4.00;2.83;;;38.10;35.40;;;;;;4982655;28;20548;-83